Terminal Aerodrome Forecast
Issued by NWS

Home | Current Version | Previous Version | Text Only | Print | Product List | Glossary On
Versions: 1 2 3 4 5 6 7 8 9 10 11 12 13 14
000
FTUS46 KMTR 280523
TAFMRY
TAF
KMRY 280523Z 2806/2906 02005KT 6SM BR SCT002
      TEMPO 2806/2808 1SM BR BKN001
     FM280800 14004KT 3/4SM BR VV001
     FM281700 29006KT P6SM FEW012
     FM290300 29004KT P6SM BKN008=

USA.gov is the U.S. government's official web portal to all federal, state and local government web resources and services.